| time (UTC) | temp C | wind direction | speed KPH | gust KPH | rain 1hr cm | rain 24hr cm | rain mn cm | humidity % | barometer mb |
| 20260507224124 | 10 | 338 | 0.0 | 0.0 | 0.00 | 0.00 | 0.00 | 100 | 1012.8 |
| 20260507223621 | 10 | 338 | 0.0 | 0.0 | 0.00 | 0.00 | 0.00 | 100 | 1012.9 |
| 20260507223109 | 10 | 338 | 0.0 | 0.0 | 0.00 | 0.00 | 0.00 | 100 | 1012.8 |
| 20260507222606 | 10 | 339 | 0.0 | 0.0 | 0.00 | 0.00 | 0.00 | 100 | 1012.9 |
| 20260507221604 | 10 | 339 | 0.0 | 0.0 | 0.00 | 0.00 | 0.00 | 100 | 1013.0 |
| 20260507221103 | 10 | 338 | 0.0 | 0.0 | 0.00 | 0.00 | 0.00 | 100 | 1013.0 |
| 20260507220602 | 10 | 338 | 0.0 | 0.0 | 0.00 | 0.00 | 0.00 | 100 | 1013.0 |
| 20260507220109 | 10 | 338 | 0.0 | 0.0 | 0.00 | 0.00 | 0.00 | 100 | 1013.1 |
| 20260507215606 | 10 | 338 | 0.0 | 0.0 | 0.00 | 0.00 | 0.00 | 100 | 1013.2 |
| 20260507215110 | 10 | 338 | 0.0 | 0.0 | 0.00 | 0.00 | 0.00 | 100 | 1013.1 |
| 20260507214609 | 10 | 339 | 0.0 | 0.0 | 0.00 | 0.00 | 0.00 | 100 | 1013.1 |
| 20260507214113 | 10 | 339 | 0.0 | 0.0 | 0.00 | 0.00 | 0.00 | 100 | 1013.1 |
| 20260507213615 | 10 | 338 | 0.0 | 0.0 | 0.00 | 0.00 | 0.00 | 100 | 1013.1 |
| 20260507213118 | 11 | 339 | 0.0 | 0.0 | 0.00 | 0.00 | 0.00 | 100 | 1013.2 |
| 20260507212607 | 11 | 338 | 0.0 | 0.0 | 0.00 | 0.00 | 0.00 | 100 | 1013.2 |
| 20260507212109 | 11 | 338 | 0.0 | 0.0 | 0.00 | 0.00 | 0.00 | 100 | 1013.2 |
| 20260507211612 | 11 | 338 | 0.0 | 0.0 | 0.00 | 0.00 | 0.00 | 100 | 1013.2 |
| 20260507211114 | 11 | 338 | 0.0 | 0.0 | 0.00 | 0.00 | 0.00 | 100 | 1013.1 |
| 20260507210615 | 11 | 338 | 0.0 | 0.0 | 0.00 | 0.00 | 0.00 | 100 | 1013.0 |
| 20260507210114 | 11 | 338 | 0.0 | 0.0 | 0.00 | 0.00 | 0.00 | 100 | 1013.1 |
| 20260507205616 | 11 | 338 | 0.0 | 0.0 | 0.00 | 0.00 | 0.00 | 100 | 1013.0 |
| 20260507205118 | 11 | 338 | 0.0 | 0.0 | 0.00 | 0.00 | 0.00 | 100 | 1013.0 |
| 20260507204607 | 11 | 339 | 0.0 | 0.0 | 0.00 | 0.00 | 0.00 | 100 | 1013.1 |
| 20260507204103 | 11 | 338 | 0.0 | 0.0 | 0.00 | 0.00 | 0.00 | 100 | 1013.1 |
| 20260507203604 | 11 | 338 | 0.0 | 0.0 | 0.00 | 0.00 | 0.00 | 100 | 1013.1 |
| 20260507203105 | 11 | 339 | 0.0 | 0.0 | 0.00 | 0.00 | 0.00 | 100 | 1013.0 |
| 20260507202601 | 11 | 339 | 0.0 | 0.0 | 0.00 | 0.00 | 0.00 | 100 | 1013.1 |
| 20260507202100 | 11 | 338 | 0.0 | 0.0 | 0.00 | 0.00 | 0.00 | 100 | 1013.0 |
| 20260507201607 | 12 | 339 | 0.0 | 0.0 | 0.00 | 0.00 | 0.00 | 100 | 1013.0 |
| 20260507201056 | 12 | 338 | 0.0 | 0.0 | 0.00 | 0.00 | 0.00 | 100 | 1013.0 |
| 20260507200549 | 12 | 338 | 0.0 | 0.0 | 0.00 | 0.00 | 0.00 | 100 | 1012.9 |
| 20260507200043 | 12 | 338 | 0.0 | 0.0 | 0.00 | 0.00 | 0.00 | 100 | 1012.9 |
| 20260507195542 | 12 | 338 | 0.0 | 0.0 | 0.00 | 0.00 | 0.00 | 100 | 1012.9 |
| 20260507195040 | 12 | 338 | 0.0 | 0.0 | 0.00 | 0.00 | 0.00 | 100 | 1012.8 |
| 20260507194537 | 12 | 339 | 0.0 | 0.0 | 0.00 | 0.00 | 0.00 | 100 | 1012.8 |
| 20260507194037 | 12 | 338 | 0.0 | 0.0 | 0.00 | 0.00 | 0.00 | 100 | 1012.8 |
| 20260507193534 | 12 | 338 | 0.0 | 1.6 | 0.00 | 0.00 | 0.00 | 100 | 1012.8 |
| 20260507193024 | 12 | 338 | 0.0 | 3.2 | 0.00 | 0.00 | 0.00 | 100 | 1012.7 |
| 20260507192521 | 12 | 339 | 0.0 | 0.0 | 0.00 | 0.00 | 0.00 | 100 | 1012.7 |
| 20260507192019 | 13 | 338 | 0.0 | 0.0 | 0.00 | 0.00 | 0.00 | 100 | 1012.7 |
| 20260507191517 | 13 | 338 | 0.0 | 0.0 | 0.00 | 0.00 | 0.00 | 100 | 1012.7 |
| 20260507191014 | 13 | 339 | 0.0 | 0.0 | 0.00 | 0.00 | 0.00 | 100 | 1012.6 |
| 20260507190513 | 13 | 339 | 0.0 | 0.0 | 0.00 | 0.00 | 0.00 | 100 | 1012.7 |
| 20260507190012 | 13 | 338 | 0.0 | 0.0 | 0.00 | 0.00 | 0.00 | 100 | 1012.6 |
| 20260507185509 | 13 | 338 | 0.0 | 4.8 | 0.00 | 0.00 | 0.00 | 100 | 1012.7 |
| 20260507185008 | 13 | 338 | 1.6 | 8.0 | 0.00 | 0.00 | 0.00 | 100 | 1012.6 |
| 20260507184501 | 13 | 339 | 3.2 | 8.0 | 0.00 | 0.00 | 0.00 | 100 | 1012.6 |
| 20260507184001 | 14 | 339 | 1.6 | 6.4 | 0.00 | 0.00 | 0.00 | 100 | 1012.6 |
| 20260507182002 | 14 | 338 | 1.6 | 6.4 | 0.00 | 0.00 | 0.00 | 100 | 1012.6 |
| 20260507090157 | 16 | 117 | 4.8 | 12.9 | 0.00 | 0.00 | 0.00 | 100 | 1013.4 |
| 20260507085653 | 15 | 119 | 1.6 | 9.7 | 0.00 | 0.00 | 0.00 | 100 | 1013.4 |
| 20260507085150 | 15 | 119 | 4.8 | 9.7 | 0.00 | 0.00 | 0.00 | 100 | 1013.4 |
| 20260507084648 | 15 | 119 | 3.2 | 9.7 | 0.00 | 0.00 | 0.00 | 100 | 1013.4 |
| 20260507084137 | 15 | 119 | 3.2 | 11.3 | 0.00 | 0.00 | 0.00 | 100 | 1013.4 |
| 20260507083634 | 15 | 119 | 3.2 | 11.3 | 0.00 | 0.00 | 0.00 | 100 | 1013.4 |
| 20260507083132 | 15 | 119 | 4.8 | 11.3 | 0.00 | 0.00 | 0.00 | 100 | 1013.4 |
| 20260507082630 | 15 | 119 | 3.2 | 6.4 | 0.00 | 0.00 | 0.00 | 100 | 1013.4 |
| 20260507082130 | 15 | 119 | 3.2 | 12.9 | 0.00 | 0.00 | 0.00 | 100 | 1013.3 |
| 20260507081626 | 15 | 119 | 4.8 | 16.1 | 0.00 | 0.00 | 0.00 | 100 | 1013.3 |
| 20260507081127 | 15 | 119 | 8.0 | 16.1 | 0.00 | 0.00 | 0.00 | 100 | 1013.4 |
| 20260507080622 | 15 | 105 | 6.4 | 12.9 | 0.00 | 0.00 | 0.00 | 100 | 1013.4 |
| 20260507080123 | 15 | 105 | 4.8 | 11.3 | 0.00 | 0.00 | 0.00 | 100 | 1013.4 |
| 20260507075118 | 14 | 105 | 6.4 | 12.9 | 0.00 | 0.00 | 0.00 | 100 | 1013.3 |
| 20260507074613 | 14 | 105 | 8.0 | 12.9 | 0.00 | 0.00 | 0.00 | 100 | 1013.4 |
| 20260507074112 | 14 | 105 | 6.4 | 12.9 | 0.00 | 0.00 | 0.00 | 100 | 1013.4 |
| 20260507073610 | 13 | 105 | 6.4 | 12.9 | 0.00 | 0.00 | 0.00 | 100 | 1013.3 |
| 20260507073108 | 13 | 105 | 4.8 | 12.9 | 0.00 | 0.00 | 0.00 | 100 | 1013.3 |
| 20260507072607 | 13 | 103 | 6.4 | 12.9 | 0.00 | 0.00 | 0.00 | 100 | 1013.3 |
| 20260507072106 | 13 | 103 | 6.4 | 14.5 | 0.00 | 0.00 | 0.00 | 100 | 1013.3 |
| 20260507071602 | 13 | 103 | 6.4 | 14.5 | 0.00 | 0.00 | 0.00 | 100 | 1013.2 |
| 20260507071101 | 12 | 102 | 6.4 | 14.5 | 0.00 | 0.00 | 0.00 | 100 | 1013.3 |
| 20260507070558 | 12 | 89 | 9.7 | 14.5 | 0.00 | 0.00 | 0.00 | 100 | 1013.2 |
| 20260507070101 | 12 | 349 | 3.2 | 9.7 | 0.00 | 0.00 | 0.00 | 100 | 1013.2 |
| 20260507065555 | 12 | 348 | 3.2 | 8.0 | 0.00 | 0.00 | 0.00 | 100 | 1013.2 |
| 20260507065052 | 12 | 348 | 3.2 | 8.0 | 0.00 | 0.00 | 0.00 | 100 | 1013.2 |
| 20260507064551 | 12 | 348 | 0.0 | 0.0 | 0.00 | 0.00 | 0.00 | 100 | 1013.2 |
| 20260507064049 | 11 | 348 | 0.0 | 0.0 | 0.00 | 0.00 | 0.00 | 100 | 1013.1 |
| 20260507063550 | 11 | 348 | 0.0 | 0.0 | 0.00 | 0.00 | 0.00 | 100 | 1013.1 |
| 20260507063049 | 10 | 348 | 0.0 | 0.0 | 0.00 | 0.00 | 0.00 | 100 | 1013.1 |
| 20260507062542 | 10 | 348 | 0.0 | 0.0 | 0.00 | 0.00 | 0.00 | 100 | 1013.1 |
| 20260507062040 | 9 | 348 | 0.0 | 0.0 | 0.00 | 0.00 | 0.00 | 100 | 1013.1 |
| 20260507061541 | 9 | 348 | 0.0 | 0.0 | 0.00 | 0.00 | 0.00 | 100 | 1013.1 |
| 20260507061037 | 8 | 348 | 0.0 | 0.0 | 0.00 | 0.00 | 0.00 | 100 | 1013.1 |
| 20260507060534 | 8 | 348 | 0.0 | 0.0 | 0.00 | 0.00 | 0.00 | 100 | 1013.1 |
| 20260507060048 | 8 | 348 | 0.0 | 0.0 | 0.00 | 0.00 | 0.00 | 100 | 1013.2 |
| 20260507055534 | 8 | 348 | 0.0 | 0.0 | 0.00 | 0.00 | 0.00 | 100 | 1013.1 |
| 20260507055028 | 8 | 348 | 0.0 | 0.0 | 0.00 | 0.00 | 0.00 | 100 | 1013.1 |
| 20260507054533 | 8 | 348 | 0.0 | 0.0 | 0.00 | 0.00 | 0.00 | 100 | 1013.0 |
| 20260507054024 | 8 | 348 | 0.0 | 0.0 | 0.00 | 0.00 | 0.00 | 100 | 1013.1 |
| 20260507053522 | 8 | 348 | 0.0 | 0.0 | 0.00 | 0.00 | 0.00 | 100 | 1013.1 |
| 20260507053021 | 8 | 348 | 0.0 | 0.0 | 0.00 | 0.00 | 0.00 | 100 | 1013.0 |
| 20260507052520 | 8 | 348 | 0.0 | 0.0 | 0.00 | 0.00 | 0.00 | 100 | 1013.0 |
| 20260507052018 | 8 | 348 | 0.0 | 0.0 | 0.00 | 0.00 | 0.00 | 100 | 1013.0 |
| 20260507051515 | 8 | 348 | 0.0 | 0.0 | 0.00 | 0.00 | 0.00 | 100 | 1012.9 |
| 20260507051012 | 8 | 348 | 0.0 | 0.0 | 0.00 | 0.00 | 0.00 | 100 | 1013.0 |
| 20260507050510 | 8 | 348 | 0.0 | 0.0 | 0.00 | 0.00 | 0.00 | 100 | 1012.9 |
| 20260507050008 | 8 | 348 | 0.0 | 0.0 | 0.00 | 0.00 | 0.00 | 100 | 1012.8 |
| 20260507045506 | 8 | 348 | 0.0 | 0.0 | 0.00 | 0.00 | 0.00 | 100 | 1012.8 |
| 20260507045005 | 8 | 348 | 0.0 | 0.0 | 0.00 | 0.00 | 0.00 | 100 | 1012.8 |
| 20260507044506 | 8 | 348 | 0.0 | 0.0 | 0.00 | 0.00 | 0.00 | 100 | 1012.7 |
| 20260507044000 | 8 | 348 | 0.0 | 0.0 | 0.00 | 0.00 | 0.00 | 100 | 1012.7 |